createdAt,value
2023-02-06T00:00:24.312Z,100379.94
2023-02-06T00:02:50.832Z,100386.53
2023-02-06T00:05:17.403Z,100388.50
2023-02-06T00:07:43.894Z,100383.34
2023-02-06T00:10:10.359Z,100382.59
2023-02-06T00:12:36.772Z,100382.22
2023-02-06T00:15:03.414Z,100380.38
2023-02-06T00:17:29.834Z,100382.13
2023-02-06T00:19:56.252Z,100384.25
2023-02-06T00:22:22.699Z,100392.59
2023-02-06T00:24:49.085Z,100389.19
2023-02-06T00:27:15.501Z,100391.72
2023-02-06T00:29:41.965Z,100394.22
2023-02-06T00:32:08.393Z,100390.09
2023-02-06T00:34:34.833Z,100385.03
2023-02-06T00:37:01.401Z,100395.78
2023-02-06T00:39:27.886Z,100397.28
2023-02-06T00:41:55.722Z,100399.56
2023-02-06T00:44:22.952Z,100393.56
2023-02-06T00:46:49.665Z,100382.91
2023-02-06T00:49:16.397Z,100382.91
2023-02-06T00:51:42.906Z,100386.38
2023-02-06T00:54:09.629Z,100381.34
2023-02-06T00:56:36.214Z,100367.91
2023-02-06T00:59:02.660Z,100374.50
2023-02-06T01:01:29.192Z,100370.03
2023-02-06T01:03:55.694Z,100374.97
2023-02-06T01:06:22.239Z,100368.97
2023-02-06T01:08:48.783Z,100376.91
2023-02-06T01:11:19.257Z,100382.75
2023-02-06T01:13:45.687Z,100378.28
2023-02-06T01:16:16.101Z,100381.19
2023-02-06T01:18:42.649Z,100378.59
2023-02-06T01:21:17.470Z,100386.22
2023-02-06T01:23:44.437Z,100385.94
2023-02-06T01:26:15.701Z,100372.06
2023-02-06T01:28:44.407Z,100378.50
2023-02-06T01:31:17.258Z,100384.28
2023-02-06T01:33:45.645Z,100394.94
2023-02-06T01:36:12.838Z,100393.41
2023-02-06T01:38:40.016Z,100384.66
2023-02-06T01:41:08.045Z,100386.91
2023-02-06T01:43:37.354Z,100385.81
2023-02-06T01:46:04.351Z,100380.59
2023-02-06T01:48:38.116Z,100386.78
2023-02-06T01:51:07.634Z,100395.28
2023-02-06T01:53:35.133Z,100390.81
2023-02-06T01:56:04.580Z,100397.13
2023-02-06T01:58:36.875Z,100397.03
2023-02-06T02:01:04.385Z,100402.81
2023-02-06T02:03:34.045Z,100404.56
2023-02-06T02:06:07.185Z,100400.97
2023-02-06T02:08:38.619Z,100392.56
2023-02-06T02:11:08.037Z,100389.09
2023-02-06T02:13:36.517Z,100385.00
2023-02-06T02:16:12.764Z,100389.19
2023-02-06T02:19:13.532Z,100378.31
2023-02-06T02:22:11.058Z,100368.34
2023-02-06T02:24:49.670Z,100375.91
2023-02-06T02:27:25.186Z,100368.34
2023-02-06T02:30:05.801Z,100371.06
2023-02-06T02:33:09.430Z,100364.31
2023-02-06T02:35:48.108Z,100363.66
2023-02-06T02:38:39.784Z,100366.25
2023-02-06T02:41:29.505Z,100367.69
2023-02-06T02:44:08.669Z,100376.91
2023-02-06T02:46:44.757Z,100377.66
2023-02-06T02:49:15.482Z,100377.09
2023-02-06T02:51:42.784Z,100375.63
2023-02-06T02:54:09.990Z,100367.41
2023-02-06T02:56:36.565Z,100364.31
2023-02-06T02:59:25.200Z,100359.69
2023-02-06T03:01:59.395Z,100369.28
2023-02-06T03:04:31.925Z,100366.94
2023-02-06T03:07:25.187Z,100359.69
2023-02-06T03:09:57.625Z,100363.47
2023-02-06T03:12:42.697Z,100367.72
2023-02-06T03:15:35.721Z,100358.72
2023-02-06T03:18:23.046Z,100356.41
2023-02-06T03:20:51.205Z,100358.25
2023-02-06T03:23:31.061Z,100365.91
2023-02-06T03:26:01.855Z,100369.56
2023-02-06T03:28:38.057Z,100370.16
2023-02-06T03:31:09.557Z,100368.78
2023-02-06T03:33:43.485Z,100367.44
2023-02-06T03:36:16.996Z,100359.47
2023-02-06T03:38:46.129Z,100372.16
2023-02-06T03:41:15.398Z,100366.41
2023-02-06T03:43:43.506Z,100372.53
2023-02-06T03:46:12.852Z,100374.38
2023-02-06T03:48:46.163Z,100373.09
2023-02-06T03:51:19.314Z,100391.00
2023-02-06T03:53:48.901Z,100400.59
2023-02-06T03:56:27.735Z,100396.53
2023-02-06T03:58:54.249Z,100391.78
2023-02-06T04:01:21.583Z,100392.13
2023-02-06T04:03:48.702Z,100395.59
2023-02-06T04:06:15.376Z,100383.63
2023-02-06T04:08:41.835Z,100389.63
2023-02-06T04:11:08.283Z,100397.28
2023-02-06T04:13:34.722Z,100393.97
2023-02-06T04:16:02.165Z,100397.53
2023-02-06T04:18:28.665Z,100399.47
2023-02-06T04:20:55.202Z,100403.94
2023-02-06T04:23:22.194Z,100404.78
2023-02-06T04:25:48.641Z,100408.19
2023-02-06T04:28:15.244Z,100396.56
2023-02-06T04:30:41.784Z,100388.38
2023-02-06T04:33:08.279Z,100384.28
2023-02-06T04:35:35.143Z,100379.34
2023-02-06T04:38:01.721Z,100369.44
2023-02-06T04:40:28.214Z,100370.50
2023-02-06T04:42:55.008Z,100365.63
2023-02-06T04:45:21.467Z,100373.19
2023-02-06T04:47:50.830Z,100375.72
2023-02-06T04:50:18.226Z,100379.19
2023-02-06T04:52:44.949Z,100384.31
2023-02-06T04:55:11.376Z,100376.84
2023-02-06T04:57:38.155Z,100375.66
2023-02-06T05:00:06.643Z,100368.25
2023-02-06T05:02:39.553Z,100375.06
2023-02-06T05:05:08.460Z,100375.22
2023-02-06T05:07:36.057Z,100361.94
2023-02-06T05:10:02.699Z,100353.63
2023-02-06T05:12:29.220Z,100354.97
2023-02-06T05:14:55.848Z,100354.19
2023-02-06T05:17:22.414Z,100352.44
2023-02-06T05:19:48.952Z,100341.56
2023-02-06T05:22:15.370Z,100350.84
2023-02-06T05:24:41.770Z,100351.75
2023-02-06T05:27:08.183Z,100354.97
2023-02-06T05:29:34.648Z,100350.84
2023-02-06T05:32:01.051Z,100345.03
2023-02-06T05:34:27.468Z,100348.16
2023-02-06T05:36:53.888Z,100355.91
2023-02-06T05:39:21.013Z,100372.81
2023-02-06T05:41:47.460Z,100382.72
2023-02-06T05:44:13.931Z,100382.13
2023-02-06T05:46:40.438Z,100382.91
2023-02-06T05:49:07.034Z,100377.75
2023-02-06T05:51:36.073Z,100384.13
2023-02-06T05:54:02.738Z,100392.22
2023-02-06T05:56:29.201Z,100394.13
2023-02-06T05:58:55.601Z,100408.50
2023-02-06T06:01:22.153Z,100403.25
2023-02-06T06:03:48.613Z,100397.28
2023-02-06T06:06:15.198Z,100399.88
2023-02-06T06:08:41.606Z,100376.56
2023-02-06T06:11:08.186Z,100372.28
2023-02-06T06:13:34.644Z,100375.66
2023-02-06T06:16:01.109Z,100384.31
2023-02-06T06:18:27.573Z,100386.53
2023-02-06T06:20:54.108Z,100369.00
2023-02-06T06:23:20.536Z,100371.78
2023-02-06T06:25:47.884Z,100360.88
2023-02-06T06:28:14.381Z,100361.06
2023-02-06T06:30:40.859Z,100366.13
2023-02-06T06:33:07.321Z,100379.44
2023-02-06T06:35:33.814Z,100377.84
2023-02-06T06:38:00.404Z,100373.69
2023-02-06T06:40:26.876Z,100370.53
2023-02-06T06:42:53.385Z,100368.09
2023-02-06T06:45:19.888Z,100368.97
2023-02-06T06:47:46.381Z,100367.47
2023-02-06T06:50:12.783Z,100368.97
2023-02-06T06:52:39.245Z,100370.91
2023-02-06T06:55:06.017Z,100372.09
2023-02-06T06:57:32.584Z,100368.47
2023-02-06T06:59:59.184Z,100372.44
2023-02-06T07:02:25.738Z,100367.41
2023-02-06T07:04:52.181Z,100372.28
2023-02-06T07:07:21.891Z,100373.31
2023-02-06T07:09:48.381Z,100377.59
2023-02-06T07:12:14.860Z,100364.44
2023-02-06T07:14:41.312Z,100371.41
2023-02-06T07:17:07.757Z,100371.41
2023-02-06T07:19:34.187Z,100373.84
2023-02-06T07:22:00.615Z,100372.34
2023-02-06T07:24:27.134Z,100372.94
2023-02-06T07:26:53.598Z,100368.28
2023-02-06T07:29:20.107Z,100370.88
2023-02-06T07:31:46.599Z,100367.63
2023-02-06T07:34:13.124Z,100378.72
2023-02-06T07:36:39.597Z,100370.34
2023-02-06T07:39:06.189Z,100367.19
2023-02-06T07:41:32.694Z,100364.06
2023-02-06T07:43:59.242Z,100363.19
2023-02-06T07:46:25.793Z,100363.88
2023-02-06T07:48:52.250Z,100380.63
2023-02-06T07:51:19.042Z,100373.72
2023-02-06T07:53:45.455Z,100379.66
2023-02-06T07:56:14.382Z,100388.97
2023-02-06T07:58:40.830Z,100380.63
2023-02-06T08:01:07.979Z,100388.28
2023-02-06T08:03:34.552Z,100382.78
2023-02-06T08:06:01.312Z,100384.69
2023-02-06T08:08:27.734Z,100386.34
2023-02-06T08:10:54.139Z,100386.25
2023-02-06T08:13:20.578Z,100386.25
2023-02-06T08:15:47.066Z,100383.81
2023-02-06T08:18:13.517Z,100385.28
2023-02-06T08:20:39.896Z,100384.97
2023-02-06T08:23:08.130Z,100381.72
2023-02-06T08:25:35.008Z,100371.84
2023-02-06T08:28:01.807Z,100384.31
2023-02-06T08:30:28.342Z,100381.63
2023-02-06T08:32:54.859Z,100377.94
2023-02-06T08:35:21.372Z,100374.47
2023-02-06T08:37:48.349Z,100380.47
2023-02-06T08:40:15.408Z,100371.75
2023-02-06T08:42:41.838Z,100367.34
2023-02-06T08:45:08.861Z,100355.31
2023-02-06T08:47:35.318Z,100356.84
2023-02-06T08:50:03.546Z,100347.94
2023-02-06T08:52:30.385Z,100350.69
2023-02-06T08:54:56.803Z,100350.16
2023-02-06T08:57:23.299Z,100340.88
2023-02-06T08:59:49.939Z,100349.31
2023-02-06T09:02:16.409Z,100341.09
2023-02-06T09:04:43.333Z,100346.59
2023-02-06T09:07:09.873Z,100343.09
2023-02-06T09:09:36.501Z,100340.47
2023-02-06T09:12:04.140Z,100329.56
2023-02-06T09:14:31.555Z,100327.66
2023-02-06T09:16:58.402Z,100329.41
2023-02-06T09:19:25.791Z,100324.63
2023-02-06T09:21:54.340Z,100314.34
2023-02-06T09:24:20.996Z,100305.56
2023-02-06T09:26:59.382Z,100307.84
2023-02-06T09:29:28.952Z,100302.97
2023-02-06T09:31:57.185Z,100307.34
2023-02-06T09:34:25.869Z,100308.47
2023-02-06T09:36:54.477Z,100299.50
2023-02-06T09:39:23.461Z,100290.69
2023-02-06T09:42:12.913Z,100286.03
2023-02-06T09:44:44.367Z,100278.63
2023-02-06T09:47:31.193Z,100287.28
2023-02-06T09:50:07.457Z,100276.50
2023-02-06T09:53:24.936Z,100283.69
2023-02-06T09:56:20.368Z,100280.44
2023-02-06T09:59:05.806Z,100278.81
2023-02-06T10:01:43.109Z,100288.22
2023-02-06T10:04:41.805Z,100282.59
2023-02-06T10:07:22.376Z,100286.31
2023-02-06T10:09:56.944Z,100275.81
2023-02-06T10:12:23.361Z,100274.16
2023-02-06T10:15:03.252Z,100286.84
2023-02-06T10:17:40.344Z,100278.78
2023-02-06T10:20:12.350Z,100272.09
2023-02-06T10:22:57.594Z,100271.50
2023-02-06T10:25:32.366Z,100276.25
2023-02-06T10:28:23.047Z,100278.78
2023-02-06T10:31:23.946Z,100275.56
2023-02-06T10:34:35.261Z,100265.00
2023-02-06T10:37:19.973Z,100251.41
2023-02-06T10:40:28.699Z,100236.13
2023-02-06T10:43:20.062Z,100233.13
2023-02-06T10:46:19.836Z,100238.09
2023-02-06T10:49:10.189Z,100244.84
2023-02-06T10:51:42.547Z,100243.50
2023-02-06T10:54:18.832Z,100230.47
2023-02-06T10:56:46.902Z,100220.91
2023-02-06T10:59:22.731Z,100210.28
2023-02-06T11:01:53.817Z,100207.53
2023-02-06T11:04:28.955Z,100200.22
2023-02-06T11:07:00.550Z,100196.88
2023-02-06T11:09:27.325Z,100199.38
2023-02-06T11:11:56.915Z,100198.50
2023-02-06T11:14:28.568Z,100188.47
2023-02-06T11:17:01.798Z,100183.56
2023-02-06T11:19:40.360Z,100187.19
2023-02-06T11:22:12.439Z,100188.94
2023-02-06T11:24:57.493Z,100191.53
2023-02-06T11:27:24.524Z,100188.06
2023-02-06T11:29:52.259Z,100186.63
2023-02-06T11:33:04.357Z,100184.31
2023-02-06T11:35:39.386Z,100181.03
2023-02-06T11:38:16.954Z,100181.06
2023-02-06T11:40:53.364Z,100171.06
2023-02-06T11:43:25.812Z,100176.09
2023-02-06T11:46:16.144Z,100178.06
2023-02-06T11:48:56.226Z,100181.66
2023-02-06T11:51:24.537Z,100175.53
2023-02-06T11:53:57.298Z,100165.31
2023-02-06T11:56:24.474Z,100177.50
2023-02-06T11:59:24.160Z,100177.13
2023-02-06T12:01:50.846Z,100185.47
2023-02-06T12:04:25.068Z,100174.13
2023-02-06T12:07:17.591Z,100163.19
2023-02-06T12:09:44.471Z,100168.94
2023-02-06T12:12:22.348Z,100164.59
2023-02-06T12:15:02.953Z,100148.75
2023-02-06T12:17:40.546Z,100156.81
2023-02-06T12:20:26.453Z,100147.47
2023-02-06T12:23:34.161Z,100138.78
2023-02-06T12:26:05.020Z,100133.72
2023-02-06T12:28:39.113Z,100128.75
2023-02-06T12:31:53.893Z,100132.75
2023-02-06T12:34:25.543Z,100130.84
2023-02-06T12:37:10.731Z,100134.53
2023-02-06T12:39:37.368Z,100126.75
2023-02-06T12:42:31.955Z,100139.53
2023-02-06T12:45:31.502Z,100145.63
2023-02-06T12:48:07.036Z,100134.97
2023-02-06T12:50:59.357Z,100132.91
2023-02-06T12:53:35.281Z,100133.66
2023-02-06T12:56:10.226Z,100131.31
2023-02-06T12:58:42.837Z,100132.34
2023-02-06T13:01:30.692Z,100122.94
2023-02-06T13:04:04.451Z,100111.84
2023-02-06T13:06:53.164Z,100115.03
2023-02-06T13:09:28.116Z,100121.91
2023-02-06T13:12:12.942Z,100116.81
2023-02-06T13:14:47.705Z,100123.75
2023-02-06T13:17:32.926Z,100124.81
2023-02-06T13:20:16.469Z,100131.06
2023-02-06T13:22:50.036Z,100145.47
2023-02-06T13:25:25.542Z,100135.56
2023-02-06T13:27:52.881Z,100140.50
2023-02-06T13:30:31.668Z,100134.19
2023-02-06T13:33:22.937Z,100144.88
2023-02-06T13:36:03.919Z,100138.47
2023-02-06T13:38:42.281Z,100137.66
2023-02-06T13:41:14.815Z,100134.88
2023-02-06T13:43:45.985Z,100134.53
2023-02-06T13:46:15.909Z,100124.50
2023-02-06T13:49:19.600Z,100132.34
2023-02-06T13:52:31.284Z,100127.50
2023-02-06T13:55:37.903Z,100118.44
2023-02-06T13:58:29.890Z,100125.19
2023-02-06T14:00:58.468Z,100117.63
2023-02-06T14:03:34.028Z,100110.13
2023-02-06T14:06:22.343Z,100100.72
2023-02-06T14:09:08.799Z,100098.91
2023-02-06T14:12:18.636Z,100103.09
2023-02-06T14:15:03.709Z,100111.09
2023-02-06T14:17:59.378Z,100105.31
2023-02-06T14:20:49.224Z,100107.81
2023-02-06T14:23:27.106Z,100114.75
2023-02-06T14:26:06.668Z,100112.94
2023-02-06T14:28:46.916Z,100121.31
2023-02-06T14:31:33.329Z,100130.25
2023-02-06T14:34:45.237Z,100123.81
2023-02-06T14:37:53.031Z,100126.41
2023-02-06T14:40:27.423Z,100123.59
2023-02-06T14:42:58.262Z,100120.47
2023-02-06T14:45:40.916Z,100116.81
2023-02-06T14:48:22.926Z,100109.41
2023-02-06T14:50:53.312Z,100102.72
2023-02-06T14:53:39.840Z,100112.91
2023-02-06T14:56:16.143Z,100121.94
2023-02-06T14:58:46.284Z,100121.16
2023-02-06T15:01:20.701Z,100122.06
2023-02-06T15:03:49.831Z,100119.19
2023-02-06T15:06:30.542Z,100111.91
2023-02-06T15:08:57.154Z,100115.44
2023-02-06T15:11:26.717Z,100099.78
2023-02-06T15:13:55.629Z,100108.16
2023-02-06T15:16:23.205Z,100109.97
2023-02-06T15:18:49.765Z,100112.50
2023-02-06T15:21:18.860Z,100111.38
2023-02-06T15:23:48.568Z,100111.38
2023-02-06T15:26:32.615Z,100112.84
2023-02-06T15:29:01.135Z,100107.88
2023-02-06T15:31:29.456Z,100120.47
2023-02-06T15:34:00.156Z,100111.03
2023-02-06T15:36:37.383Z,100105.00
2023-02-06T15:39:07.674Z,100108.44
2023-02-06T15:41:35.203Z,100120.13
2023-02-06T15:44:09.569Z,100113.19
2023-02-06T15:46:37.260Z,100120.03
2023-02-06T15:49:04.207Z,100119.84
2023-02-06T15:51:40.748Z,100119.06
2023-02-06T15:54:16.519Z,100114.88
2023-02-06T15:56:47.009Z,100118.25
2023-02-06T15:59:21.364Z,100111.19
2023-02-06T16:01:48.677Z,100113.56
2023-02-06T16:04:15.142Z,100119.44
2023-02-06T16:06:41.589Z,100123.66
2023-02-06T16:09:08.550Z,100125.13
2023-02-06T16:11:47.418Z,100124.16
2023-02-06T16:14:32.769Z,100126.56
2023-02-06T16:17:03.565Z,100129.13
2023-02-06T16:19:49.781Z,100130.09
2023-02-06T16:22:23.709Z,100132.50
2023-02-06T16:24:53.042Z,100130.66
2023-02-06T16:27:22.740Z,100126.63
2023-02-06T16:29:52.858Z,100122.31
2023-02-06T16:32:22.212Z,100134.09
2023-02-06T16:34:48.708Z,100132.00
2023-02-06T16:37:22.334Z,100129.41
2023-02-06T16:39:49.160Z,100125.09
2023-02-06T16:42:27.218Z,100132.63
2023-02-06T16:44:59.392Z,100135.91
2023-02-06T16:47:25.966Z,100144.19
2023-02-06T16:49:52.601Z,100147.47
2023-02-06T16:52:29.044Z,100151.69
2023-02-06T16:54:58.848Z,100153.47
2023-02-06T16:57:32.290Z,100160.63
2023-02-06T16:59:59.302Z,100168.78
2023-02-06T17:02:27.266Z,100161.81
2023-02-06T17:04:54.346Z,100160.28
2023-02-06T17:07:23.744Z,100165.28
2023-02-06T17:09:51.558Z,100159.41
2023-02-06T17:12:20.573Z,100164.44
2023-02-06T17:14:48.752Z,100165.81
2023-02-06T17:17:17.987Z,100165.03
2023-02-06T17:19:45.264Z,100172.44
2023-02-06T17:22:12.171Z,100169.13
2023-02-06T17:24:39.947Z,100176.78
2023-02-06T17:27:11.156Z,100179.22
2023-02-06T17:29:37.603Z,100170.72
2023-02-06T17:32:06.096Z,100169.06
2023-02-06T17:34:32.931Z,100165.63
2023-02-06T17:36:59.810Z,100157.03
2023-02-06T17:39:26.364Z,100158.78
2023-02-06T17:41:53.101Z,100154.69
2023-02-06T17:44:20.087Z,100166.78
2023-02-06T17:46:48.311Z,100174.06
2023-02-06T17:49:16.003Z,100180.72
2023-02-06T17:51:43.953Z,100179.88
2023-02-06T17:54:11.810Z,100173.91
2023-02-06T17:56:39.004Z,100184.94
2023-02-06T17:59:05.413Z,100190.00
2023-02-06T18:01:31.885Z,100192.56
2023-02-06T18:04:00.791Z,100197.63
2023-02-06T18:06:31.053Z,100202.16
2023-02-06T18:08:57.499Z,100208.22
2023-02-06T18:11:24.024Z,100209.09
2023-02-06T18:13:50.515Z,100213.03
2023-02-06T18:16:21.185Z,100206.22
2023-02-06T18:18:48.424Z,100200.88
2023-02-06T18:21:16.098Z,100209.16
2023-02-06T18:23:42.624Z,100211.50
2023-02-06T18:26:09.971Z,100198.88
2023-02-06T18:28:38.234Z,100189.47
2023-02-06T18:31:05.964Z,100194.41
2023-02-06T18:33:35.227Z,100204.34
2023-02-06T18:36:06.101Z,100206.97
2023-02-06T18:38:32.858Z,100213.66
2023-02-06T18:41:04.375Z,100210.16
2023-02-06T18:43:30.986Z,100209.38
2023-02-06T18:45:57.387Z,100202.72
2023-02-06T18:48:24.050Z,100202.84
2023-02-06T18:50:50.552Z,100219.75
2023-02-06T18:53:16.943Z,100225.78
2023-02-06T18:55:43.363Z,100229.31
2023-02-06T18:58:09.812Z,100231.06
2023-02-06T19:00:37.846Z,100220.19
2023-02-06T19:03:04.860Z,100227.09
2023-02-06T19:05:34.957Z,100230.72
2023-02-06T19:08:01.383Z,100236.78
2023-02-06T19:10:28.014Z,100239.13
2023-02-06T19:12:54.449Z,100240.09
2023-02-06T19:15:20.926Z,100242.75
2023-02-06T19:17:49.298Z,100257.16
2023-02-06T19:20:15.908Z,100258.47
2023-02-06T19:22:42.328Z,100259.75
2023-02-06T19:25:14.259Z,100257.50
2023-02-06T19:27:41.018Z,100261.69
2023-02-06T19:30:08.430Z,100256.63
2023-02-06T19:32:35.685Z,100259.16
2023-02-06T19:35:03.009Z,100258.22
2023-02-06T19:37:29.454Z,100256.69
2023-02-06T19:39:55.940Z,100255.38
2023-02-06T19:42:22.468Z,100259.16
2023-02-06T19:44:55.173Z,100264.88
2023-02-06T19:47:22.139Z,100259.56
2023-02-06T19:49:52.917Z,100273.91
2023-02-06T19:52:20.322Z,100273.84
2023-02-06T19:54:47.769Z,100279.84
2023-02-06T19:57:14.913Z,100283.69
2023-02-06T19:59:42.476Z,100272.63
2023-02-06T20:02:10.314Z,100266.63
2023-02-06T20:04:37.742Z,100256.31
2023-02-06T20:07:04.220Z,100267.94
2023-02-06T20:09:30.976Z,100264.66
2023-02-06T20:11:57.855Z,100257.00
2023-02-06T20:14:24.936Z,100250.25
2023-02-06T20:16:51.556Z,100251.63
2023-02-06T20:19:22.073Z,100256.63
2023-02-06T20:21:51.157Z,100272.44
2023-02-06T20:24:20.708Z,100262.44
2023-02-06T20:26:48.737Z,100254.78
2023-02-06T20:29:24.996Z,100245.34
2023-02-06T20:31:52.467Z,100251.72
2023-02-06T20:34:19.429Z,100250.88
2023-02-06T20:36:46.364Z,100252.25
2023-02-06T20:39:13.692Z,100246.91
2023-02-06T20:41:40.768Z,100254.50
2023-02-06T20:44:11.334Z,100256.81
2023-02-06T20:46:38.022Z,100261.59
2023-02-06T20:49:09.235Z,100262.31
2023-02-06T20:51:35.756Z,100262.03
2023-02-06T20:54:02.205Z,100268.38
2023-02-06T20:56:28.684Z,100273.44
2023-02-06T20:58:56.256Z,100279.00
2023-02-06T21:01:28.068Z,100285.53
2023-02-06T21:03:57.894Z,100296.38
2023-02-06T21:06:24.314Z,100296.75
2023-02-06T21:08:52.816Z,100307.28
2023-02-06T21:11:19.324Z,100309.75
2023-02-06T21:13:45.807Z,100309.53
2023-02-06T21:16:13.630Z,100313.56
2023-02-06T21:18:42.441Z,100319.28
2023-02-06T21:21:11.542Z,100316.19
2023-02-06T21:23:39.358Z,100323.94
2023-02-06T21:26:06.848Z,100317.66
2023-02-06T21:28:35.132Z,100319.13
2023-02-06T21:31:07.303Z,100318.22
2023-02-06T21:33:35.155Z,100322.28
2023-02-06T21:36:03.644Z,100331.94
2023-02-06T21:38:30.123Z,100333.94
2023-02-06T21:41:03.483Z,100333.66
2023-02-06T21:43:30.459Z,100330.06
2023-02-06T21:45:57.981Z,100323.50
2023-02-06T21:48:24.455Z,100332.97
2023-02-06T21:50:50.885Z,100326.31
2023-02-06T21:53:17.295Z,100328.31
2023-02-06T21:55:44.624Z,100328.47
2023-02-06T21:58:15.649Z,100330.84
2023-02-06T22:00:47.266Z,100344.34
2023-02-06T22:03:14.426Z,100349.03
2023-02-06T22:05:40.953Z,100340.81
2023-02-06T22:08:07.395Z,100337.94
2023-02-06T22:10:36.978Z,100344.56
2023-02-06T22:13:05.447Z,100356.28
2023-02-06T22:15:32.729Z,100359.91
2023-02-06T22:17:59.309Z,100359.81
2023-02-06T22:20:26.150Z,100361.78
2023-02-06T22:22:54.447Z,100354.75
2023-02-06T22:25:21.258Z,100364.16
2023-02-06T22:27:47.734Z,100366.59
2023-02-06T22:30:14.311Z,100365.56
2023-02-06T22:32:40.778Z,100388.63
2023-02-06T22:35:07.800Z,100390.06
2023-02-06T22:37:34.581Z,100396.41
2023-02-06T22:40:01.004Z,100400.94
2023-02-06T22:42:27.465Z,100405.50
2023-02-06T22:44:53.979Z,100410.81
2023-02-06T22:47:20.412Z,100406.00
2023-02-06T22:49:49.666Z,100404.78
2023-02-06T22:52:34.452Z,100412.00
2023-02-06T22:55:03.037Z,100420.16
2023-02-06T22:57:29.904Z,100414.38
2023-02-06T22:59:56.304Z,100410.66
2023-02-06T23:02:22.803Z,100411.34
2023-02-06T23:04:49.261Z,100404.69
2023-02-06T23:07:15.700Z,100409.34
2023-02-06T23:09:42.086Z,100415.19
2023-02-06T23:12:11.356Z,100397.59
2023-02-06T23:14:37.817Z,100428.28
2023-02-06T23:17:04.285Z,100431.31
2023-02-06T23:19:31.114Z,100429.91
2023-02-06T23:21:57.916Z,100434.63
2023-02-06T23:24:24.531Z,100420.31
2023-02-06T23:26:53.273Z,100430.53
2023-02-06T23:29:20.826Z,100434.47
2023-02-06T23:31:48.379Z,100443.06
2023-02-06T23:34:16.936Z,100455.19
2023-02-06T23:36:44.866Z,100432.81
2023-02-06T23:39:11.996Z,100447.00
2023-02-06T23:41:39.118Z,100432.03
2023-02-06T23:44:07.182Z,100433.41
2023-02-06T23:46:35.463Z,100426.97
2023-02-06T23:49:02.366Z,100420.34
2023-02-06T23:51:29.143Z,100418.50
2023-02-06T23:53:55.641Z,100410.50
2023-02-06T23:56:27.996Z,100402.06
2023-02-06T23:58:56.549Z,100390.38
